sensor_id;sensor_type;location;lat;lon;timestamp;pressure;altitude;pressure_sealevel;temperature;humidity
67803;BME280;54601;51.378;-1.342;2023-01-26T00:00:42;101535.48;;;17.75;26.35
67803;BME280;54601;51.378;-1.342;2023-01-26T00:03:08;101537.78;;;17.73;26.37
67803;BME280;54601;51.378;-1.342;2023-01-26T00:05:35;101537.66;;;17.55;26.50
67803;BME280;54601;51.378;-1.342;2023-01-26T00:07:58;101537.70;;;17.76;26.29
67803;BME280;54601;51.378;-1.342;2023-01-26T00:10:23;101538.20;;;17.75;26.51
67803;BME280;54601;51.378;-1.342;2023-01-26T00:12:49;101540.34;;;17.64;26.41
67803;BME280;54601;51.378;-1.342;2023-01-26T00:15:14;101544.82;;;17.61;26.42
67803;BME280;54601;51.378;-1.342;2023-01-26T00:17:39;101541.03;;;17.59;26.42
67803;BME280;54601;51.378;-1.342;2023-01-26T00:20:05;101537.54;;;17.71;26.30
67803;BME280;54601;51.378;-1.342;2023-01-26T00:22:30;101533.21;;;17.54;26.45
67803;BME280;54601;51.378;-1.342;2023-01-26T00:24:55;101534.00;;;17.58;26.40
67803;BME280;54601;51.378;-1.342;2023-01-26T00:27:20;101538.71;;;17.55;26.41
67803;BME280;54601;51.378;-1.342;2023-01-26T00:29:46;101539.95;;;17.49;26.48
67803;BME280;54601;51.378;-1.342;2023-01-26T00:32:11;101539.19;;;17.58;26.36
67803;BME280;54601;51.378;-1.342;2023-01-26T00:34:36;101540.04;;;17.55;26.41
67803;BME280;54601;51.378;-1.342;2023-01-26T00:37:02;101535.75;;;17.11;26.51
67803;BME280;54601;51.378;-1.342;2023-01-26T00:39:27;101535.47;;;17.66;26.46
67803;BME280;54601;51.378;-1.342;2023-01-26T00:41:52;101537.15;;;17.52;26.35
67803;BME280;54601;51.378;-1.342;2023-01-26T00:44:18;101535.45;;;17.18;26.63
67803;BME280;54601;51.378;-1.342;2023-01-26T00:46:43;101532.55;;;17.54;26.29
67803;BME280;54601;51.378;-1.342;2023-01-26T00:49:08;101527.09;;;17.22;26.56
67803;BME280;54601;51.378;-1.342;2023-01-26T00:51:33;101524.49;;;17.50;26.28
67803;BME280;54601;51.378;-1.342;2023-01-26T00:53:59;101522.56;;;17.39;26.43
67803;BME280;54601;51.378;-1.342;2023-01-26T00:56:24;101524.37;;;17.55;26.21
67803;BME280;54601;51.378;-1.342;2023-01-26T00:58:49;101528.45;;;17.21;26.51
67803;BME280;54601;51.378;-1.342;2023-01-26T01:01:15;101528.20;;;17.28;26.45
67803;BME280;54601;51.378;-1.342;2023-01-26T01:03:40;101526.71;;;17.34;26.36
67803;BME280;54601;51.378;-1.342;2023-01-26T01:06:05;101528.31;;;17.52;26.19
67803;BME280;54601;51.378;-1.342;2023-01-26T01:08:30;101525.92;;;17.56;26.15
67803;BME280;54601;51.378;-1.342;2023-01-26T01:11:03;101527.11;;;17.94;26.18
67803;BME280;54601;51.378;-1.342;2023-01-26T01:13:21;101524.69;;;17.38;26.26
67803;BME280;54601;51.378;-1.342;2023-01-26T01:15:46;101528.42;;;17.89;25.99
67803;BME280;54601;51.378;-1.342;2023-01-26T01:18:12;101529.53;;;17.48;26.12
67803;BME280;54601;51.378;-1.342;2023-01-26T01:20:39;101525.70;;;17.68;25.96
67803;BME280;54601;51.378;-1.342;2023-01-26T01:23:02;101523.52;;;17.67;25.96
67803;BME280;54601;51.378;-1.342;2023-01-26T01:25:28;101525.39;;;18.00;26.07
67803;BME280;54601;51.378;-1.342;2023-01-26T01:27:53;101532.12;;;17.58;26.02
67803;BME280;54601;51.378;-1.342;2023-01-26T01:30:18;101536.55;;;17.49;26.13
67803;BME280;54601;51.378;-1.342;2023-01-26T01:32:43;101535.68;;;17.49;26.07
67803;BME280;54601;51.378;-1.342;2023-01-26T01:35:09;101537.39;;;17.46;26.10
67803;BME280;54601;51.378;-1.342;2023-01-26T01:37:34;101535.49;;;17.31;26.26
67803;BME280;54601;51.378;-1.342;2023-01-26T01:39:59;101531.62;;;17.52;26.25
67803;BME280;54601;51.378;-1.342;2023-01-26T01:42:25;101529.71;;;17.75;26.01
67803;BME280;54601;51.378;-1.342;2023-01-26T01:47:20;101531.62;;;17.40;26.33
67803;BME280;54601;51.378;-1.342;2023-01-26T01:49:44;101533.44;;;17.21;26.30
67803;BME280;54601;51.378;-1.342;2023-01-26T01:52:11;101530.09;;;17.21;26.29
67803;BME280;54601;51.378;-1.342;2023-01-26T01:54:33;101537.87;;;17.67;26.11
67803;BME280;54601;51.378;-1.342;2023-01-26T01:57:01;101537.44;;;17.20;26.07
67803;BME280;54601;51.378;-1.342;2023-01-26T01:59:22;101537.27;;;17.55;25.98
67803;BME280;54601;51.378;-1.342;2023-01-26T02:01:48;101543.10;;;17.81;26.18
67803;BME280;54601;51.378;-1.342;2023-01-26T02:04:12;101547.04;;;17.57;26.23
67803;BME280;54601;51.378;-1.342;2023-01-26T02:06:41;101543.89;;;17.46;26.06
67803;BME280;54601;51.378;-1.342;2023-01-26T02:09:03;101540.57;;;17.97;26.03
67803;BME280;54601;51.378;-1.342;2023-01-26T02:11:32;101538.53;;;17.64;26.14
67803;BME280;54601;51.378;-1.342;2023-01-26T02:13:55;101540.75;;;17.71;26.06
67803;BME280;54601;51.378;-1.342;2023-01-26T02:16:19;101541.18;;;17.67;26.11
67803;BME280;54601;51.378;-1.342;2023-01-26T02:18:45;101542.46;;;17.70;26.08
67803;BME280;54601;51.378;-1.342;2023-01-26T02:21:11;101536.52;;;17.60;26.16
67803;BME280;54601;51.378;-1.342;2023-01-26T02:23:45;101539.06;;;17.53;26.04
67803;BME280;54601;51.378;-1.342;2023-01-26T02:26:06;101539.62;;;17.28;26.24
67803;BME280;54601;51.378;-1.342;2023-01-26T02:28:26;101539.07;;;17.31;26.24
67803;BME280;54601;51.378;-1.342;2023-01-26T02:30:52;101542.21;;;17.78;26.01
67803;BME280;54601;51.378;-1.342;2023-01-26T02:33:17;101540.22;;;17.49;26.07
67803;BME280;54601;51.378;-1.342;2023-01-26T02:35:41;101539.12;;;17.37;26.16
67803;BME280;54601;51.378;-1.342;2023-01-26T02:38:07;101543.74;;;17.40;26.15
67803;BME280;54601;51.378;-1.342;2023-01-26T02:40:38;101548.38;;;17.49;26.06
67803;BME280;54601;51.378;-1.342;2023-01-26T02:42:57;101548.32;;;17.50;26.04
67803;BME280;54601;51.378;-1.342;2023-01-26T02:45:25;101553.10;;;17.65;26.09
67803;BME280;54601;51.378;-1.342;2023-01-26T02:47:48;101553.57;;;17.41;26.11
67803;BME280;54601;51.378;-1.342;2023-01-26T02:50:13;101556.22;;;17.39;26.12
67803;BME280;54601;51.378;-1.342;2023-01-26T02:52:39;101559.95;;;17.39;26.12
67803;BME280;54601;51.378;-1.342;2023-01-26T02:55:05;101554.90;;;17.59;26.15
67803;BME280;54601;51.378;-1.342;2023-01-26T02:57:29;101557.79;;;17.92;26.07
67803;BME280;54601;51.378;-1.342;2023-01-26T02:59:54;101556.84;;;17.44;26.08
67803;BME280;54601;51.378;-1.342;2023-01-26T03:02:20;101555.89;;;17.83;26.12
67803;BME280;54601;51.378;-1.342;2023-01-26T03:04:45;101559.23;;;17.98;25.99
67803;BME280;54601;51.378;-1.342;2023-01-26T03:07:10;101564.65;;;17.62;26.11
67803;BME280;54601;51.378;-1.342;2023-01-26T03:09:35;101566.24;;;17.83;26.12
67803;BME280;54601;51.378;-1.342;2023-01-26T03:12:01;101561.05;;;17.78;25.98
67803;BME280;54601;51.378;-1.342;2023-01-26T03:14:26;101560.72;;;17.37;26.11
67803;BME280;54601;51.378;-1.342;2023-01-26T03:16:51;101560.55;;;17.48;26.06
67803;BME280;54601;51.378;-1.342;2023-01-26T03:19:16;101557.34;;;17.73;26.03
67803;BME280;54601;51.378;-1.342;2023-01-26T03:21:42;101562.38;;;18.08;25.89
67803;BME280;54601;51.378;-1.342;2023-01-26T03:24:11;101566.75;;;17.78;25.96
67803;BME280;54601;51.378;-1.342;2023-01-26T03:26:33;101570.29;;;18.09;25.90
67803;BME280;54601;51.378;-1.342;2023-01-26T03:28:58;101567.23;;;17.54;25.99
67803;BME280;54601;51.378;-1.342;2023-01-26T03:31:23;101568.97;;;17.44;26.09
67803;BME280;54601;51.378;-1.342;2023-01-26T03:33:48;101568.82;;;17.34;26.17
67803;BME280;54601;51.378;-1.342;2023-01-26T03:36:13;101569.70;;;17.51;26.03
67803;BME280;54601;51.378;-1.342;2023-01-26T03:38:39;101567.55;;;17.44;26.07
67803;BME280;54601;51.378;-1.342;2023-01-26T03:41:04;101568.15;;;17.61;26.12
67803;BME280;54601;51.378;-1.342;2023-01-26T03:43:29;101568.63;;;18.04;25.93
67803;BME280;54601;51.378;-1.342;2023-01-26T03:45:54;101574.12;;;17.60;25.92
67803;BME280;54601;51.378;-1.342;2023-01-26T03:48:20;101577.76;;;17.99;25.99
67803;BME280;54601;51.378;-1.342;2023-01-26T03:50:45;101579.71;;;17.60;25.94
67803;BME280;54601;51.378;-1.342;2023-01-26T03:53:13;101576.44;;;17.61;26.15
67803;BME280;54601;51.378;-1.342;2023-01-26T03:55:36;101575.45;;;17.45;26.06
67803;BME280;54601;51.378;-1.342;2023-01-26T03:58:01;101577.84;;;17.50;26.01
67803;BME280;54601;51.378;-1.342;2023-01-26T04:00:26;101579.39;;;17.47;26.06
67803;BME280;54601;51.378;-1.342;2023-01-26T04:02:51;101583.36;;;17.58;25.94
67803;BME280;54601;51.378;-1.342;2023-01-26T04:05:17;101585.70;;;17.56;25.98
67803;BME280;54601;51.378;-1.342;2023-01-26T04:07:42;101584.24;;;17.46;26.06
67803;BME280;54601;51.378;-1.342;2023-01-26T04:10:08;101583.78;;;17.60;25.92
67803;BME280;54601;51.378;-1.342;2023-01-26T04:12:33;101584.94;;;17.56;25.95
67803;BME280;54601;51.378;-1.342;2023-01-26T04:14:58;101585.09;;;18.17;25.80
67803;BME280;54601;51.378;-1.342;2023-01-26T04:17:23;101588.99;;;17.62;25.90
67803;BME280;54601;51.378;-1.342;2023-01-26T04:19:49;101591.50;;;17.87;25.87
67803;BME280;54601;51.378;-1.342;2023-01-26T04:22:14;101591.08;;;17.49;25.99
67803;BME280;54601;51.378;-1.342;2023-01-26T04:24:39;101581.57;;;17.77;25.97
67803;BME280;54601;51.378;-1.342;2023-01-26T04:27:04;101580.05;;;17.70;25.82
67803;BME280;54601;51.378;-1.342;2023-01-26T04:29:29;101584.24;;;17.99;25.98
67803;BME280;54601;51.378;-1.342;2023-01-26T04:31:55;101590.51;;;17.57;25.93
67803;BME280;54601;51.378;-1.342;2023-01-26T04:34:20;101597.83;;;17.44;26.05
67803;BME280;54601;51.378;-1.342;2023-01-26T04:36:45;101601.48;;;17.56;25.93
67803;BME280;54601;51.378;-1.342;2023-01-26T04:39:10;101601.38;;;17.57;25.93
67803;BME280;54601;51.378;-1.342;2023-01-26T04:41:36;101600.03;;;17.57;25.94
67803;BME280;54601;51.378;-1.342;2023-01-26T04:44:01;101602.92;;;17.76;25.97
67803;BME280;54601;51.378;-1.342;2023-01-26T04:46:26;101605.22;;;17.89;25.84
67803;BME280;54601;51.378;-1.342;2023-01-26T04:48:51;101609.71;;;17.51;25.98
67803;BME280;54601;51.378;-1.342;2023-01-26T04:51:18;101605.06;;;17.57;25.91
67803;BME280;54601;51.378;-1.342;2023-01-26T04:53:42;101598.89;;;17.65;26.01
67803;BME280;54601;51.378;-1.342;2023-01-26T04:56:10;101601.11;;;17.44;26.00
67803;BME280;54601;51.378;-1.342;2023-01-26T04:58:33;101602.25;;;17.92;25.78
67803;BME280;54601;51.378;-1.342;2023-01-26T05:00:58;101603.09;;;18.05;25.85
67803;BME280;54601;51.378;-1.342;2023-01-26T05:03:24;101602.47;;;17.88;25.99
67803;BME280;54601;51.378;-1.342;2023-01-26T05:05:49;101604.78;;;18.04;25.85
67803;BME280;54601;51.378;-1.342;2023-01-26T05:08:14;101600.97;;;17.82;25.84
67803;BME280;54601;51.378;-1.342;2023-01-26T05:10:39;101601.14;;;17.61;25.81
67803;BME280;54601;51.378;-1.342;2023-01-26T05:13:04;101602.67;;;17.62;25.81
67803;BME280;54601;51.378;-1.342;2023-01-26T05:15:29;101598.80;;;17.55;25.84
67803;BME280;54601;51.378;-1.342;2023-01-26T05:17:56;101602.31;;;17.49;25.89
67803;BME280;54601;51.378;-1.342;2023-01-26T05:20:20;101607.65;;;17.74;25.88
67803;BME280;54601;51.378;-1.342;2023-01-26T05:22:45;101604.50;;;17.64;25.96
67803;BME280;54601;51.378;-1.342;2023-01-26T05:25:11;101598.25;;;17.97;25.86
67803;BME280;54601;51.378;-1.342;2023-01-26T05:27:36;101592.22;;;17.78;25.79
67803;BME280;54601;51.378;-1.342;2023-01-26T05:30:02;101593.20;;;17.35;25.99
67803;BME280;54601;51.378;-1.342;2023-01-26T05:32:27;101594.57;;;17.57;25.77
67803;BME280;54601;51.378;-1.342;2023-01-26T05:34:52;101593.80;;;17.44;25.84
67803;BME280;54601;51.378;-1.342;2023-01-26T05:37:17;101596.39;;;17.42;25.88
67803;BME280;54601;51.378;-1.342;2023-01-26T05:39:42;101592.95;;;17.53;25.78
67803;BME280;54601;51.378;-1.342;2023-01-26T05:42:08;101594.31;;;17.80;25.92
67803;BME280;54601;51.378;-1.342;2023-01-26T05:44:33;101596.91;;;17.89;25.82
67803;BME280;54601;51.378;-1.342;2023-01-26T05:46:58;101601.44;;;17.58;25.90
67803;BME280;54601;51.378;-1.342;2023-01-26T05:49:23;101598.33;;;17.35;25.89
67803;BME280;54601;51.378;-1.342;2023-01-26T05:51:49;101599.16;;;17.91;25.80
67803;BME280;54601;51.378;-1.342;2023-01-26T05:54:14;101601.86;;;17.64;25.80
67803;BME280;54601;51.378;-1.342;2023-01-26T05:56:39;101607.68;;;17.87;25.82
67803;BME280;54601;51.378;-1.342;2023-01-26T05:59:05;101611.34;;;17.88;25.80
67803;BME280;54601;51.378;-1.342;2023-01-26T06:01:30;101612.58;;;17.47;25.97
67803;BME280;54601;51.378;-1.342;2023-01-26T06:03:55;101616.02;;;17.36;25.83
67803;BME280;54601;51.378;-1.342;2023-01-26T06:06:20;101615.87;;;17.55;25.90
67803;BME280;54601;51.378;-1.342;2023-01-26T06:08:46;101620.37;;;17.16;26.04
67803;BME280;54601;51.378;-1.342;2023-01-26T06:11:11;101623.52;;;17.34;25.86
67803;BME280;54601;51.378;-1.342;2023-01-26T06:13:36;101624.77;;;17.33;25.86
67803;BME280;54601;51.378;-1.342;2023-01-26T06:16:02;101623.99;;;16.98;26.16
67803;BME280;54601;51.378;-1.342;2023-01-26T06:18:27;101630.47;;;17.24;25.95
67803;BME280;54601;51.378;-1.342;2023-01-26T06:20:52;101640.60;;;17.70;25.74
67803;BME280;54601;51.378;-1.342;2023-01-26T06:23:17;101642.93;;;17.37;25.80
67803;BME280;54601;51.378;-1.342;2023-01-26T06:25:43;101636.61;;;17.65;25.91
67803;BME280;54601;51.378;-1.342;2023-01-26T06:28:08;101639.14;;;17.47;25.89
67803;BME280;54601;51.378;-1.342;2023-01-26T06:30:33;101640.99;;;17.33;25.82
67803;BME280;54601;51.378;-1.342;2023-01-26T06:32:59;101641.34;;;17.51;25.84
67803;BME280;54601;51.378;-1.342;2023-01-26T06:35:24;101645.35;;;17.48;25.86
67803;BME280;54601;51.378;-1.342;2023-01-26T06:37:49;101650.04;;;17.65;25.89
67803;BME280;54601;51.378;-1.342;2023-01-26T06:40:15;101648.80;;;17.14;25.97
67803;BME280;54601;51.378;-1.342;2023-01-26T06:42:46;101651.54;;;17.20;25.87
67803;BME280;54601;51.378;-1.342;2023-01-26T06:45:06;101652.85;;;17.54;25.76
67803;BME280;54601;51.378;-1.342;2023-01-26T06:47:30;101652.36;;;17.68;25.84
67803;BME280;54601;51.378;-1.342;2023-01-26T06:49:55;101658.63;;;17.13;25.94
67803;BME280;54601;51.378;-1.342;2023-01-26T06:52:25;101659.40;;;17.46;26.01
67803;BME280;54601;51.378;-1.342;2023-01-26T06:54:47;101664.44;;;17.14;25.89
67803;BME280;54601;51.378;-1.342;2023-01-26T06:57:11;101667.60;;;17.01;26.02
67803;BME280;54601;51.378;-1.342;2023-01-26T06:59:36;101674.43;;;17.14;25.89
67803;BME280;54601;51.378;-1.342;2023-01-26T07:02:02;101671.27;;;17.46;25.76
67803;BME280;54601;51.378;-1.342;2023-01-26T07:04:27;101671.01;;;17.66;25.78
67803;BME280;54601;51.378;-1.342;2023-01-26T07:06:52;101679.48;;;17.13;25.88
67803;BME280;54601;51.378;-1.342;2023-01-26T07:09:18;101682.83;;;17.12;26.05
67803;BME280;54601;51.378;-1.342;2023-01-26T07:11:43;101680.10;;;17.19;26.00
67803;BME280;54601;51.378;-1.342;2023-01-26T07:14:08;101670.89;;;17.39;25.83
67803;BME280;54601;51.378;-1.342;2023-01-26T07:16:34;101674.44;;;17.22;25.96
67803;BME280;54601;51.378;-1.342;2023-01-26T07:18:59;101683.89;;;17.32;26.06
67803;BME280;54601;51.378;-1.342;2023-01-26T07:21:24;101686.56;;;17.01;26.13
67803;BME280;54601;51.378;-1.342;2023-01-26T07:23:49;101697.38;;;17.44;25.95
67803;BME280;54601;51.378;-1.342;2023-01-26T07:26:15;101704.26;;;17.46;25.91
67803;BME280;54601;51.378;-1.342;2023-01-26T07:28:40;101704.90;;;17.23;25.92
67803;BME280;54601;51.378;-1.342;2023-01-26T07:31:06;101703.70;;;16.95;25.95
67803;BME280;54601;51.378;-1.342;2023-01-26T07:33:31;101708.80;;;17.37;25.78
67803;BME280;54601;51.378;-1.342;2023-01-26T07:35:56;101707.63;;;17.15;25.98
67803;BME280;54601;51.378;-1.342;2023-01-26T07:38:21;101706.40;;;16.99;26.12
67803;BME280;54601;51.378;-1.342;2023-01-26T07:40:46;101708.52;;;17.03;26.08
67803;BME280;54601;51.378;-1.342;2023-01-26T07:43:12;101706.68;;;17.47;25.88
67803;BME280;54601;51.378;-1.342;2023-01-26T07:45:37;101709.10;;;17.02;26.08
67803;BME280;54601;51.378;-1.342;2023-01-26T07:48:02;101707.49;;;17.17;25.94
67803;BME280;54601;51.378;-1.342;2023-01-26T07:50:27;101709.36;;;17.18;25.95
67803;BME280;54601;51.378;-1.342;2023-01-26T07:52:53;101705.29;;;17.22;25.87
67803;BME280;54601;51.378;-1.342;2023-01-26T07:55:18;101705.19;;;17.49;25.87
67803;BME280;54601;51.378;-1.342;2023-01-26T07:57:43;101702.34;;;17.32;25.82
67803;BME280;54601;51.378;-1.342;2023-01-26T08:00:10;101702.57;;;17.59;25.76
67803;BME280;54601;51.378;-1.342;2023-01-26T08:02:34;101698.87;;;17.29;25.63
67803;BME280;54601;51.378;-1.342;2023-01-26T08:04:59;101706.64;;;17.59;25.77
67803;BME280;54601;51.378;-1.342;2023-01-26T08:07:24;101709.83;;;17.59;25.78
67803;BME280;54601;51.378;-1.342;2023-01-26T08:09:50;101713.60;;;17.26;25.87
67803;BME280;54601;51.378;-1.342;2023-01-26T08:12:15;101714.80;;;17.30;25.86
67803;BME280;54601;51.378;-1.342;2023-01-26T08:14:40;101719.92;;;17.26;25.90
67803;BME280;54601;51.378;-1.342;2023-01-26T08:17:05;101718.71;;;17.19;25.94
67803;BME280;54601;51.378;-1.342;2023-01-26T08:19:31;101717.30;;;17.03;25.93
67803;BME280;54601;51.378;-1.342;2023-01-26T08:21:56;101714.86;;;17.40;26.00
67803;BME280;54601;51.378;-1.342;2023-01-26T08:24:21;101716.22;;;17.44;25.96
67803;BME280;54601;51.378;-1.342;2023-01-26T08:26:46;101718.76;;;17.58;25.82
67803;BME280;54601;51.378;-1.342;2023-01-26T08:29:12;101721.11;;;17.37;26.04
67803;BME280;54601;51.378;-1.342;2023-01-26T08:31:37;101715.77;;;17.42;26.00
67803;BME280;54601;51.378;-1.342;2023-01-26T08:34:02;101713.43;;;17.41;26.01
67803;BME280;54601;51.378;-1.342;2023-01-26T08:36:28;101717.93;;;17.06;26.14
67803;BME280;54601;51.378;-1.342;2023-01-26T08:38:53;101716.45;;;17.48;25.96
67803;BME280;54601;51.378;-1.342;2023-01-26T08:41:18;101715.77;;;17.20;26.24
67803;BME280;54601;51.378;-1.342;2023-01-26T08:43:44;101716.78;;;17.34;26.12
67803;BME280;54601;51.378;-1.342;2023-01-26T08:46:09;101708.76;;;17.35;26.10
67803;BME280;54601;51.378;-1.342;2023-01-26T08:48:34;101717.17;;;17.43;26.04
67803;BME280;54601;51.378;-1.342;2023-01-26T08:51:01;101718.34;;;17.34;26.13
67803;BME280;54601;51.378;-1.342;2023-01-26T08:53:25;101719.46;;;17.14;26.32
67803;BME280;54601;51.378;-1.342;2023-01-26T08:55:50;101723.70;;;17.29;26.20
67803;BME280;54601;51.378;-1.342;2023-01-26T08:58:16;101731.07;;;17.21;26.08
67803;BME280;54601;51.378;-1.342;2023-01-26T09:00:41;101729.02;;;17.47;26.06
67803;BME280;54601;51.378;-1.342;2023-01-26T09:03:06;101732.26;;;17.35;25.98
67803;BME280;54601;51.378;-1.342;2023-01-26T09:05:34;101731.29;;;17.62;25.94
67803;BME280;54601;51.378;-1.342;2023-01-26T09:07:56;101729.62;;;17.49;26.08
67803;BME280;54601;51.378;-1.342;2023-01-26T09:10:22;101729.85;;;17.54;26.05
67803;BME280;54601;51.378;-1.342;2023-01-26T09:12:47;101725.07;;;17.49;26.11
67803;BME280;54601;51.378;-1.342;2023-01-26T09:15:12;101728.31;;;17.44;26.14
67803;BME280;54601;51.378;-1.342;2023-01-26T09:17:38;101734.97;;;17.46;26.14
67803;BME280;54601;51.378;-1.342;2023-01-26T09:20:04;101732.83;;;17.14;26.06
67803;BME280;54601;51.378;-1.342;2023-01-26T09:22:28;101736.99;;;17.15;26.05
67803;BME280;54601;51.378;-1.342;2023-01-26T09:24:54;101746.82;;;17.34;26.11
67803;BME280;54601;51.378;-1.342;2023-01-26T09:27:19;101748.94;;;17.23;26.22
67803;BME280;54601;51.378;-1.342;2023-01-26T09:29:44;101748.59;;;17.53;26.13
67803;BME280;54601;51.378;-1.342;2023-01-26T09:32:10;101747.89;;;17.58;26.28
67803;BME280;54601;51.378;-1.342;2023-01-26T09:34:35;101746.09;;;17.24;26.40
67803;BME280;54601;51.378;-1.342;2023-01-26T09:37:00;101747.44;;;17.37;26.33
67803;BME280;54601;51.378;-1.342;2023-01-26T09:39:25;101745.16;;;17.75;26.18
67803;BME280;54601;51.378;-1.342;2023-01-26T09:42:02;101750.14;;;17.53;26.18
67803;BME280;54601;51.378;-1.342;2023-01-26T09:44:19;101750.55;;;17.45;26.28
67803;BME280;54601;51.378;-1.342;2023-01-26T09:46:49;101752.40;;;17.53;26.20
67803;BME280;54601;51.378;-1.342;2023-01-26T09:49:08;101750.51;;;17.84;26.12
67803;BME280;54601;51.378;-1.342;2023-01-26T09:51:34;101751.65;;;17.66;26.09
67803;BME280;54601;51.378;-1.342;2023-01-26T09:54:00;101752.66;;;17.58;26.17
67803;BME280;54601;51.378;-1.342;2023-01-26T09:56:27;101752.21;;;17.61;26.11
67803;BME280;54601;51.378;-1.342;2023-01-26T09:58:52;101749.54;;;17.64;26.12
67803;BME280;54601;51.378;-1.342;2023-01-26T10:01:17;101756.25;;;17.51;26.07
67803;BME280;54601;51.378;-1.342;2023-01-26T10:03:42;101760.20;;;18.02;26.01
67803;BME280;54601;51.378;-1.342;2023-01-26T10:06:12;101766.00;;;17.79;26.02
67803;BME280;54601;51.378;-1.342;2023-01-26T10:08:29;101769.90;;;17.60;26.01
67803;BME280;54601;51.378;-1.342;2023-01-26T10:10:57;101769.78;;;17.95;26.09
67803;BME280;54601;51.378;-1.342;2023-01-26T10:13:21;101775.61;;;17.95;26.11
67803;BME280;54601;51.378;-1.342;2023-01-26T10:15:47;101781.03;;;17.58;26.06
67803;BME280;54601;51.378;-1.342;2023-01-26T10:18:16;101781.45;;;17.77;26.09
67803;BME280;54601;51.378;-1.342;2023-01-26T10:20:38;101785.56;;;17.57;26.07
67803;BME280;54601;51.378;-1.342;2023-01-26T10:23:04;101783.93;;;17.64;26.02
67803;BME280;54601;51.378;-1.342;2023-01-26T10:25:33;101783.62;;;17.47;26.16
67803;BME280;54601;51.378;-1.342;2023-01-26T10:27:52;101784.04;;;17.35;26.37
67803;BME280;54601;51.378;-1.342;2023-01-26T10:30:18;101782.59;;;17.57;26.22
67803;BME280;54601;51.378;-1.342;2023-01-26T10:32:43;101785.87;;;17.46;26.43
67803;BME280;54601;51.378;-1.342;2023-01-26T10:35:14;101790.63;;;17.64;26.34
67803;BME280;54601;51.378;-1.342;2023-01-26T10:37:33;101789.30;;;17.96;26.56
67803;BME280;54601;51.378;-1.342;2023-01-26T10:39:59;101790.70;;;17.52;26.65
67803;BME280;54601;51.378;-1.342;2023-01-26T10:42:26;101789.54;;;17.55;26.66
67803;BME280;54601;51.378;-1.342;2023-01-26T10:44:49;101785.83;;;17.34;26.87
67803;BME280;54601;51.378;-1.342;2023-01-26T10:47:15;101785.85;;;17.61;26.87
67803;BME280;54601;51.378;-1.342;2023-01-26T10:49:38;101780.30;;;17.63;26.71
67803;BME280;54601;51.378;-1.342;2023-01-26T10:52:06;101780.84;;;17.42;27.00
67803;BME280;54601;51.378;-1.342;2023-01-26T10:54:29;101781.23;;;17.43;27.02
67803;BME280;54601;51.378;-1.342;2023-01-26T10:56:56;101776.01;;;17.57;26.89
67803;BME280;54601;51.378;-1.342;2023-01-26T10:59:26;101781.76;;;17.75;26.80
67803;BME280;54601;51.378;-1.342;2023-01-26T11:01:50;101781.40;;;17.98;26.98
67803;BME280;54601;51.378;-1.342;2023-01-26T11:04:11;101786.50;;;17.55;27.05
67803;BME280;54601;51.378;-1.342;2023-01-26T11:06:35;101786.05;;;17.67;26.97
67803;BME280;54601;51.378;-1.342;2023-01-26T11:09:10;101786.18;;;17.72;26.97
67803;BME280;54601;51.378;-1.342;2023-01-26T11:11:26;101784.06;;;17.60;27.09
67803;BME280;54601;51.378;-1.342;2023-01-26T11:16:23;101781.51;;;17.25;27.43
67803;BME280;54601;51.378;-1.342;2023-01-26T11:18:50;101779.45;;;17.53;27.54
67803;BME280;54601;51.378;-1.342;2023-01-26T11:21:11;101783.17;;;17.61;27.26
67803;BME280;54601;51.378;-1.342;2023-01-26T11:23:41;101785.89;;;17.72;27.11
67803;BME280;54601;51.378;-1.342;2023-01-26T11:26:13;101789.80;;;17.68;27.17
67803;BME280;54601;51.378;-1.342;2023-01-26T11:28:33;101783.68;;;18.11;26.95
67803;BME280;54601;51.378;-1.342;2023-01-26T11:30:57;101782.98;;;17.57;27.19
67803;BME280;54601;51.378;-1.342;2023-01-26T11:33:20;101783.96;;;17.83;27.06
67803;BME280;54601;51.378;-1.342;2023-01-26T11:35:47;101781.42;;;17.75;27.10
67803;BME280;54601;51.378;-1.342;2023-01-26T11:38:17;101782.32;;;17.70;27.13
67803;BME280;54601;51.378;-1.342;2023-01-26T11:40:35;101776.82;;;17.29;27.54
67803;BME280;54601;51.378;-1.342;2023-01-26T11:43:05;101772.15;;;17.64;27.30
67803;BME280;54601;51.378;-1.342;2023-01-26T11:45:24;101772.33;;;17.93;27.32
67803;BME280;54601;51.378;-1.342;2023-01-26T11:47:55;101771.79;;;18.01;27.26
67803;BME280;54601;51.378;-1.342;2023-01-26T11:50:21;101774.29;;;17.74;27.38
67803;BME280;54601;51.378;-1.342;2023-01-26T11:52:45;101768.38;;;17.85;27.32
67803;BME280;54601;51.378;-1.342;2023-01-26T11:57:31;101760.29;;;17.56;27.62
67803;BME280;54601;51.378;-1.342;2023-01-26T11:59:55;101759.74;;;17.91;27.47
67803;BME280;54601;51.378;-1.342;2023-01-26T12:02:26;101761.82;;;17.59;27.53
67803;BME280;54601;51.378;-1.342;2023-01-26T12:04:43;101763.81;;;17.95;27.53
67803;BME280;54601;51.378;-1.342;2023-01-26T12:07:13;101766.21;;;17.74;27.69
67803;BME280;54601;51.378;-1.342;2023-01-26T12:09:36;101762.12;;;17.45;27.81
67803;BME280;54601;51.378;-1.342;2023-01-26T12:12:02;101760.75;;;17.54;27.71
67803;BME280;54601;51.378;-1.342;2023-01-26T12:14:25;101757.61;;;17.56;27.83
67803;BME280;54601;51.378;-1.342;2023-01-26T12:17:00;101760.14;;;17.48;27.78
67803;BME280;54601;51.378;-1.342;2023-01-26T12:19:24;101763.01;;;17.46;27.90
67803;BME280;54601;51.378;-1.342;2023-01-26T12:21:43;101758.12;;;17.70;27.61
67803;BME280;54601;51.378;-1.342;2023-01-26T12:24:07;101759.30;;;17.46;27.94
67803;BME280;54601;51.378;-1.342;2023-01-26T12:26:32;101758.15;;;17.74;27.70
67803;BME280;54601;51.378;-1.342;2023-01-26T12:29:00;101755.54;;;17.69;27.75
67803;BME280;54601;51.378;-1.342;2023-01-26T12:31:22;101753.48;;;17.56;27.82
67803;BME280;54601;51.378;-1.342;2023-01-26T12:33:46;101753.29;;;17.81;27.74
67803;BME280;54601;51.378;-1.342;2023-01-26T12:36:19;101755.92;;;17.63;27.81